Eureka, CA (95501)

5:56 AM PST on January 22, 2017 (GMT -0800)
20-30 Park | | Change Station

Elev 85 ft 40.79 °N, 124.17 °W | Updated 12 seconds ago

Mostly Cloudy
Mostly Cloudy
41.4 °F
Feels Like 38 °F
N
4.9
Wind Variable Wind from SSE
Gusts 7.4 mph

Today
High -- | Low -- °F
--% Chance of Precip.
Yesterday
High -- | Low -- °F
Precip. -- in
Pressure 29.59 in
Visibility 10.0 miles
Clouds Scattered Clouds 2700 ft
Mostly Cloudy 3700 ft
Overcast 5500 ft
Windchill 38 °F
Dew Point 37 °F
Humidity 85%
Rainfall 0.40 in
Snow Depth Not available.
7:34 AM 5:22 PM
Waning Crescent, 26% visible
METAR KACV 221353Z AUTO 13009KT 10SM -RA SCT027 BKN037 OVC055 07/06 A2957 RMK AO2 RAB25 SLP019 P0000 T00670056
Pressure 29.59 in
Visibility 10.0 miles
Clouds Scattered Clouds 2700 ft
Mostly Cloudy 3700 ft
Overcast 5500 ft
Windchill 38 °F
Dew Point 37 °F
Humidity 85%
Rainfall 0.40 in
Snow Depth Not available.
7:34 AM 5:22 PM
Waning Crescent, 26% visible
METAR KACV 221353Z AUTO 13009KT 10SM -RA SCT027 BKN037 OVC055 07/06 A2957 RMK AO2 RAB25 SLP019 P0000 T00670056

Get Your Daily Forecast Email!

Thanks for signing up!

Be on the lookout for a verification email in your inbox.

You'll start receiving the daily forecast at 8 AM.

×

10-Day Weather Forecast

Almanac

Astronomy

Jan. 22, 2017 Rise Set
Actual Time
Civil Twilight
Nautical Twilight
Astronomical Twilight
Moon
Length of Visible Light
Length of Day
Tomorrow will be .
, % of the Moon is Illuminated

Today's Extremes

State Highs State Lows

Community

WunderPhotos

Upload Photos

1,962,540 photos uploaded!

WunderBlog® & News

Nearby

Air Quality

  Air Quality AQ Index Pollutant
Not available.

Snow Depth

Station Depth Elevation

Earthquake Activity

City Distance Mag. Time & Date
Minimum magnitude displayed is 2.5.

Coastal Water Temperatures

Place Temperature

Stations

Nearby Weather Stations

Station Location Temp. Windchill Dew Point Humidity Wind Precip. Elev Updated Type
                   

Watches & Warnings

There are currently no watches in effect.